sensor_id;sensor_type;location;lat;lon;timestamp;P1;durP1;ratioP1;P2;durP2;ratioP2
22468;SDS011;11401;50.792;4.352;2023-06-22T00:14:21;2.92;;;2.20;;
22468;SDS011;11401;50.792;4.352;2023-06-22T00:16:50;2.65;;;2.42;;
22468;SDS011;11401;50.792;4.352;2023-06-22T00:19:21;5.70;;;2.35;;
22468;SDS011;11401;50.792;4.352;2023-06-22T00:21:49;3.47;;;2.13;;
22468;SDS011;11401;50.792;4.352;2023-06-22T00:24:20;2.35;;;1.95;;
22468;SDS011;11401;50.792;4.352;2023-06-22T00:26:47;3.80;;;2.17;;
22468;SDS011;11401;50.792;4.352;2023-06-22T00:29:15;4.45;;;2.33;;
22468;SDS011;11401;50.792;4.352;2023-06-22T00:31:42;2.97;;;2.30;;
22468;SDS011;11401;50.792;4.352;2023-06-22T00:34:09;3.92;;;2.00;;
22468;SDS011;11401;50.792;4.352;2023-06-22T00:36:36;3.05;;;2.45;;
22468;SDS011;11401;50.792;4.352;2023-06-22T00:39:03;4.57;;;2.42;;
22468;SDS011;11401;50.792;4.352;2023-06-22T00:41:31;3.60;;;1.92;;
22468;SDS011;11401;50.792;4.352;2023-06-22T00:43:58;4.60;;;2.00;;
22468;SDS011;11401;50.792;4.352;2023-06-22T00:46:25;2.65;;;2.33;;
22468;SDS011;11401;50.792;4.352;2023-06-22T00:48:52;2.10;;;1.83;;
22468;SDS011;11401;50.792;4.352;2023-06-22T00:51:23;3.10;;;2.25;;
22468;SDS011;11401;50.792;4.352;2023-06-22T00:53:51;2.63;;;2.42;;
22468;SDS011;11401;50.792;4.352;2023-06-22T00:56:19;3.22;;;2.22;;
22468;SDS011;11401;50.792;4.352;2023-06-22T00:58:51;2.35;;;2.13;;
22468;SDS011;11401;50.792;4.352;2023-06-22T01:01:21;2.20;;;2.00;;
22468;SDS011;11401;50.792;4.352;2023-06-22T01:03:50;4.28;;;2.42;;
22468;SDS011;11401;50.792;4.352;2023-06-22T01:06:22;3.25;;;2.45;;
22468;SDS011;11401;50.792;4.352;2023-06-22T01:09:10;4.70;;;2.35;;
22468;SDS011;11401;50.792;4.352;2023-06-22T01:11:47;5.60;;;3.03;;
22468;SDS011;11401;50.792;4.352;2023-06-22T01:14:31;3.10;;;2.22;;
22468;SDS011;11401;50.792;4.352;2023-06-22T01:17:08;3.53;;;1.95;;
22468;SDS011;11401;50.792;4.352;2023-06-22T01:19:46;5.05;;;2.15;;
22468;SDS011;11401;50.792;4.352;2023-06-22T01:22:23;2.42;;;2.17;;
22468;SDS011;11401;50.792;4.352;2023-06-22T01:30:34;2.40;;;2.20;;
22468;SDS011;11401;50.792;4.352;2023-06-22T01:33:03;6.22;;;2.80;;
22468;SDS011;11401;50.792;4.352;2023-06-22T01:35:32;7.32;;;2.30;;
22468;SDS011;11401;50.792;4.352;2023-06-22T01:38:00;3.22;;;2.60;;
22468;SDS011;11401;50.792;4.352;2023-06-22T01:40:27;2.70;;;2.50;;
22468;SDS011;11401;50.792;4.352;2023-06-22T01:42:56;3.35;;;2.75;;
22468;SDS011;11401;50.792;4.352;2023-06-22T01:45:23;2.63;;;2.42;;
22468;SDS011;11401;50.792;4.352;2023-06-22T01:47:52;5.20;;;2.65;;
22468;SDS011;11401;50.792;4.352;2023-06-22T01:50:20;2.42;;;2.10;;
22468;SDS011;11401;50.792;4.352;2023-06-22T01:52:48;5.32;;;3.28;;
22468;SDS011;11401;50.792;4.352;2023-06-22T01:55:15;4.32;;;2.50;;
22468;SDS011;11401;50.792;4.352;2023-06-22T01:57:42;5.00;;;2.80;;
22468;SDS011;11401;50.792;4.352;2023-06-22T02:00:13;3.90;;;2.97;;
22468;SDS011;11401;50.792;4.352;2023-06-22T02:05:34;3.97;;;2.78;;
22468;SDS011;11401;50.792;4.352;2023-06-22T02:08:17;3.03;;;2.55;;
22468;SDS011;11401;50.792;4.352;2023-06-22T02:10:48;3.22;;;2.72;;
22468;SDS011;11401;50.792;4.352;2023-06-22T02:13:17;3.22;;;2.42;;
22468;SDS011;11401;50.792;4.352;2023-06-22T02:15:45;7.70;;;2.95;;
22468;SDS011;11401;50.792;4.352;2023-06-22T02:18:13;4.80;;;2.42;;
22468;SDS011;11401;50.792;4.352;2023-06-22T02:20:40;2.90;;;2.60;;
22468;SDS011;11401;50.792;4.352;2023-06-22T02:23:08;3.70;;;2.78;;
22468;SDS011;11401;50.792;4.352;2023-06-22T02:25:35;2.97;;;2.67;;
22468;SDS011;11401;50.792;4.352;2023-06-22T02:28:02;5.53;;;3.10;;
22468;SDS011;11401;50.792;4.352;2023-06-22T02:30:30;2.90;;;2.63;;
22468;SDS011;11401;50.792;4.352;2023-06-22T02:32:58;3.22;;;2.80;;
22468;SDS011;11401;50.792;4.352;2023-06-22T02:35:26;3.97;;;3.10;;
22468;SDS011;11401;50.792;4.352;2023-06-22T02:37:58;5.13;;;3.40;;
22468;SDS011;11401;50.792;4.352;2023-06-22T02:40:27;5.95;;;3.58;;
22468;SDS011;11401;50.792;4.352;2023-06-22T02:42:56;4.50;;;2.83;;
22468;SDS011;11401;50.792;4.352;2023-06-22T02:45:28;5.18;;;2.53;;
22468;SDS011;11401;50.792;4.352;2023-06-22T02:47:55;7.07;;;3.20;;
22468;SDS011;11401;50.792;4.352;2023-06-22T02:50:23;3.78;;;2.60;;
22468;SDS011;11401;50.792;4.352;2023-06-22T02:52:51;9.45;;;2.55;;
22468;SDS011;11401;50.792;4.352;2023-06-22T02:55:19;3.40;;;3.03;;
22468;SDS011;11401;50.792;4.352;2023-06-22T02:57:53;3.10;;;2.63;;
22468;SDS011;11401;50.792;4.352;2023-06-22T03:00:20;3.05;;;2.42;;
22468;SDS011;11401;50.792;4.352;2023-06-22T03:02:48;4.60;;;2.90;;
22468;SDS011;11401;50.792;4.352;2023-06-22T03:05:17;2.70;;;2.47;;
22468;SDS011;11401;50.792;4.352;2023-06-22T03:07:46;5.75;;;2.85;;
22468;SDS011;11401;50.792;4.352;2023-06-22T03:10:13;3.95;;;2.80;;
22468;SDS011;11401;50.792;4.352;2023-06-22T03:12:41;5.22;;;2.50;;
22468;SDS011;11401;50.792;4.352;2023-06-22T03:15:11;5.45;;;2.65;;
22468;SDS011;11401;50.792;4.352;2023-06-22T03:17:39;3.65;;;2.47;;
22468;SDS011;11401;50.792;4.352;2023-06-22T03:20:08;5.35;;;3.15;;
22468;SDS011;11401;50.792;4.352;2023-06-22T03:22:37;3.10;;;2.28;;
22468;SDS011;11401;50.792;4.352;2023-06-22T03:25:06;2.92;;;2.63;;
22468;SDS011;11401;50.792;4.352;2023-06-22T03:27:40;4.43;;;3.13;;
22468;SDS011;11401;50.792;4.352;2023-06-22T03:30:09;5.30;;;2.17;;
22468;SDS011;11401;50.792;4.352;2023-06-22T03:32:37;6.43;;;2.90;;
22468;SDS011;11401;50.792;4.352;2023-06-22T03:35:05;4.60;;;2.75;;
22468;SDS011;11401;50.792;4.352;2023-06-22T03:37:35;5.47;;;2.88;;
22468;SDS011;11401;50.792;4.352;2023-06-22T03:40:02;4.68;;;2.70;;
22468;SDS011;11401;50.792;4.352;2023-06-22T03:42:34;5.85;;;3.00;;
22468;SDS011;11401;50.792;4.352;2023-06-22T03:45:03;6.40;;;3.20;;
22468;SDS011;11401;50.792;4.352;2023-06-22T03:47:30;10.15;;;2.80;;
22468;SDS011;11401;50.792;4.352;2023-06-22T03:49:58;3.47;;;3.08;;
22468;SDS011;11401;50.792;4.352;2023-06-22T03:52:25;5.28;;;3.50;;
22468;SDS011;11401;50.792;4.352;2023-06-22T03:54:52;6.30;;;2.85;;
22468;SDS011;11401;50.792;4.352;2023-06-22T03:57:19;6.30;;;2.63;;
22468;SDS011;11401;50.792;4.352;2023-06-22T03:59:46;5.57;;;3.00;;
22468;SDS011;11401;50.792;4.352;2023-06-22T04:02:13;3.90;;;2.97;;
22468;SDS011;11401;50.792;4.352;2023-06-22T04:04:40;4.65;;;2.85;;
22468;SDS011;11401;50.792;4.352;2023-06-22T04:07:07;5.03;;;2.53;;
22468;SDS011;11401;50.792;4.352;2023-06-22T04:09:35;4.43;;;2.35;;
22468;SDS011;11401;50.792;4.352;2023-06-22T04:12:02;5.13;;;3.60;;
22468;SDS011;11401;50.792;4.352;2023-06-22T04:14:29;6.18;;;3.20;;
22468;SDS011;11401;50.792;4.352;2023-06-22T04:16:57;9.43;;;4.57;;
22468;SDS011;11401;50.792;4.352;2023-06-22T04:19:25;6.20;;;4.10;;
22468;SDS011;11401;50.792;4.352;2023-06-22T04:21:52;4.45;;;3.92;;
22468;SDS011;11401;50.792;4.352;2023-06-22T04:24:19;5.15;;;4.00;;
22468;SDS011;11401;50.792;4.352;2023-06-22T04:26:46;5.68;;;4.07;;
22468;SDS011;11401;50.792;4.352;2023-06-22T04:29:14;4.95;;;4.22;;
22468;SDS011;11401;50.792;4.352;2023-06-22T04:31:41;7.68;;;4.40;;
22468;SDS011;11401;50.792;4.352;2023-06-22T04:34:08;6.88;;;4.07;;
22468;SDS011;11401;50.792;4.352;2023-06-22T04:36:37;4.72;;;3.92;;
22468;SDS011;11401;50.792;4.352;2023-06-22T04:39:09;6.88;;;5.03;;
22468;SDS011;11401;50.792;4.352;2023-06-22T04:41:37;7.10;;;4.63;;
22468;SDS011;11401;50.792;4.352;2023-06-22T04:46:36;5.20;;;4.18;;
22468;SDS011;11401;50.792;4.352;2023-06-22T04:49:08;5.93;;;4.10;;
22468;SDS011;11401;50.792;4.352;2023-06-22T04:51:39;4.85;;;4.22;;
22468;SDS011;11401;50.792;4.352;2023-06-22T04:54:07;5.47;;;4.07;;
22468;SDS011;11401;50.792;4.352;2023-06-22T04:56:35;5.80;;;4.85;;
22468;SDS011;11401;50.792;4.352;2023-06-22T04:59:02;6.30;;;4.68;;
22468;SDS011;11401;50.792;4.352;2023-06-22T05:01:29;6.80;;;4.97;;
22468;SDS011;11401;50.792;4.352;2023-06-22T05:04:01;9.15;;;5.03;;
22468;SDS011;11401;50.792;4.352;2023-06-22T05:06:29;6.82;;;4.97;;
22468;SDS011;11401;50.792;4.352;2023-06-22T05:08:56;4.85;;;4.35;;
22468;SDS011;11401;50.792;4.352;2023-06-22T05:11:25;6.43;;;4.82;;
22468;SDS011;11401;50.792;4.352;2023-06-22T05:13:52;7.53;;;4.90;;
22468;SDS011;11401;50.792;4.352;2023-06-22T05:16:20;9.52;;;5.63;;
22468;SDS011;11401;50.792;4.352;2023-06-22T05:18:51;10.68;;;5.50;;
22468;SDS011;11401;50.792;4.352;2023-06-22T05:21:22;6.53;;;4.82;;
22468;SDS011;11401;50.792;4.352;2023-06-22T05:23:51;10.40;;;5.63;;
22468;SDS011;11401;50.792;4.352;2023-06-22T05:26:19;7.93;;;6.03;;
22468;SDS011;11401;50.792;4.352;2023-06-22T05:28:47;12.05;;;6.82;;
22468;SDS011;11401;50.792;4.352;2023-06-22T05:31:14;7.47;;;6.13;;
22468;SDS011;11401;50.792;4.352;2023-06-22T05:33:43;9.57;;;6.90;;
22468;SDS011;11401;50.792;4.352;2023-06-22T05:36:10;13.32;;;6.78;;
22468;SDS011;11401;50.792;4.352;2023-06-22T05:38:39;11.70;;;7.78;;
22468;SDS011;11401;50.792;4.352;2023-06-22T05:41:06;8.50;;;7.13;;
22468;SDS011;11401;50.792;4.352;2023-06-22T05:43:34;9.93;;;7.55;;
22468;SDS011;11401;50.792;4.352;2023-06-22T05:46:01;9.65;;;8.15;;
22468;SDS011;11401;50.792;4.352;2023-06-22T05:48:30;7.10;;;6.40;;
22468;SDS011;11401;50.792;4.352;2023-06-22T05:50:57;9.88;;;7.65;;
22468;SDS011;11401;50.792;4.352;2023-06-22T05:53:24;8.18;;;6.88;;
22468;SDS011;11401;50.792;4.352;2023-06-22T05:55:52;8.38;;;6.10;;
22468;SDS011;11401;50.792;4.352;2023-06-22T05:58:19;8.65;;;6.38;;
22468;SDS011;11401;50.792;4.352;2023-06-22T06:00:46;8.07;;;7.28;;
22468;SDS011;11401;50.792;4.352;2023-06-22T06:03:13;5.75;;;4.38;;
22468;SDS011;11401;50.792;4.352;2023-06-22T06:05:43;10.32;;;7.68;;
22468;SDS011;11401;50.792;4.352;2023-06-22T06:08:11;10.98;;;8.23;;
22468;SDS011;11401;50.792;4.352;2023-06-22T06:10:39;9.63;;;7.65;;
22468;SDS011;11401;50.792;4.352;2023-06-22T06:13:06;9.13;;;7.72;;
22468;SDS011;11401;50.792;4.352;2023-06-22T06:15:34;6.82;;;6.07;;
22468;SDS011;11401;50.792;4.352;2023-06-22T06:18:01;4.80;;;4.03;;
22468;SDS011;11401;50.792;4.352;2023-06-22T06:20:32;6.88;;;4.65;;
22468;SDS011;11401;50.792;4.352;2023-06-22T06:23:00;6.75;;;5.63;;
22468;SDS011;11401;50.792;4.352;2023-06-22T06:25:27;12.30;;;10.40;;
22468;SDS011;11401;50.792;4.352;2023-06-22T06:27:54;11.93;;;9.38;;
